Time;durP1;ratioP1;P1;durP2;ratioP2;P2;SDS_P1;SDS_P2;PMS_P1;PMS_P2;Temp;Humidity;BMP_temperature;BMP_pressure;BME280_temperature;BME280_humidity;BME280_pressure;Samples;Min_cycle;Max_cycle;Signal;HPM_P1;HPM_P2
2022/08/21 00:00:22;;;;;;;;;;;;;;;17.10;46.17;100108.97;5059542;28;986;-54
2022/08/21 00:02:49;;;;;;;;;;;;;;;17.19;46.16;100111.88;5060475;28;1124;-55
2022/08/21 00:05:14;;;;;;;;;;;;;;;17.09;46.36;100107.31;5078040;28;1913;-55
2022/08/21 00:07:40;;;;;;;;;;;;;;;17.12;46.08;100108.66;5077416;28;1166;-55
2022/08/21 00:10:06;;;;;;;;;;;;;;;17.10;46.23;100109.78;5059327;28;1017;-56
2022/08/21 00:12:31;;;;;;;;;;;;;;;17.14;45.97;100101.78;5071460;28;1139;-57
2022/08/21 00:14:57;;;;;;;;;;;;;;;17.09;46.14;100091.66;5064569;28;1404;-56
2022/08/21 00:17:22;;;;;;;;;;;;;;;17.17;46.08;100103.13;5078067;28;1012;-55
2022/08/21 00:19:48;;;;;;;;;;;;;;;17.18;46.09;100101.97;5071753;28;976;-55
2022/08/21 00:22:13;;;;;;;;;;;;;;;17.16;45.89;100095.97;5077641;28;1009;-56
2022/08/21 00:24:39;;;;;;;;;;;;;;;17.07;46.29;100096.63;5077524;28;1918;-54
2022/08/21 00:27:04;;;;;;;;;;;;;;;17.14;46.08;100085.28;5074626;28;978;-57
2022/08/21 00:29:30;;;;;;;;;;;;;;;17.20;46.08;100086.03;5046339;28;1014;-55
2022/08/21 00:31:55;;;;;;;;;;;;;;;17.07;46.10;100090.34;5073185;28;1132;-56
2022/08/21 00:34:20;;;;;;;;;;;;;;;17.19;45.74;100087.16;5069177;28;1028;-54
2022/08/21 00:36:46;;;;;;;;;;;;;;;17.12;46.24;100089.44;5064761;28;1206;-56
2022/08/21 00:39:11;;;;;;;;;;;;;;;17.13;46.06;100083.66;5077350;28;834;-56
2022/08/21 00:41:37;;;;;;;;;;;;;;;17.14;46.08;100084.44;5070096;28;988;-56
2022/08/21 00:44:03;;;;;;;;;;;;;;;17.11;45.97;100077.66;5071927;28;1909;-56
2022/08/21 00:46:29;;;;;;;;;;;;;;;17.04;46.21;100074.41;5072935;28;1163;-56
2022/08/21 00:48:54;;;;;;;;;;;;;;;17.06;46.11;100075.75;5073430;28;1060;-56
2022/08/21 00:51:22;;;;;;;;;;;;;;;17.05;46.21;100079.59;5073247;28;1219;-57
2022/08/21 00:53:49;;;;;;;;;;;;;;;17.13;46.24;100075.41;5059979;28;1118;-56
2022/08/21 00:56:14;;;;;;;;;;;;;;;17.08;46.23;100080.97;5076649;28;1216;-57
2022/08/21 00:58:40;;;;;;;;;;;;;;;17.08;46.29;100079.03;5077052;28;985;-57
2022/08/21 01:01:05;;;;;;;;;;;;;;;17.12;45.89;100089.44;5058157;28;1152;-56
2022/08/21 01:03:31;;;;;;;;;;;;;;;17.08;45.89;100081.78;5063830;28;1016;-56
2022/08/21 01:05:57;;;;;;;;;;;;;;;17.14;46.05;100081.72;5059127;28;1980;-57
2022/08/21 01:08:23;;;;;;;;;;;;;;;17.11;45.69;100072.16;5077442;28;1008;-57
2022/08/21 01:10:48;;;;;;;;;;;;;;;17.13;45.84;100074.59;5076925;28;1028;-57
2022/08/21 01:13:14;;;;;;;;;;;;;;;17.10;46.08;100082.31;5058812;28;962;-57
2022/08/21 01:15:40;;;;;;;;;;;;;;;17.10;46.16;100084.25;5059366;28;1063;-57
2022/08/21 01:18:07;;;;;;;;;;;;;;;17.17;45.66;100086.63;5058464;28;1236;-57
2022/08/21 01:20:32;;;;;;;;;;;;;;;17.11;45.88;100080.41;5076434;28;763;-56
2022/08/21 01:22:57;;;;;;;;;;;;;;;17.00;45.97;100087.09;5076518;28;1000;-56
2022/08/21 01:25:23;;;;;;;;;;;;;;;17.01;45.94;100080.50;5076572;28;1921;-54
2022/08/21 01:27:48;;;;;;;;;;;;;;;17.11;45.94;100077.66;5066531;28;985;-55
2022/08/21 01:30:15;;;;;;;;;;;;;;;17.01;45.98;100084.09;5071025;28;1018;-56
2022/08/21 01:32:41;;;;;;;;;;;;;;;17.06;45.74;100092.25;5069659;28;1052;-54
2022/08/21 01:35:07;;;;;;;;;;;;;;;17.13;45.66;100080.09;5070944;28;1053;-55
2022/08/21 01:37:32;;;;;;;;;;;;;;;17.06;45.86;100085.94;5076076;28;1107;-55
2022/08/21 01:39:58;;;;;;;;;;;;;;;17.00;46.15;100085.19;5076084;28;965;-55
2022/08/21 01:42:23;;;;;;;;;;;;;;;17.02;46.17;100080.19;5075941;28;1155;-55
2022/08/21 01:44:49;;;;;;;;;;;;;;;17.07;45.89;100084.84;5068766;28;1914;-55
2022/08/21 01:47:14;;;;;;;;;;;;;;;17.06;46.03;100075.75;5076294;28;1048;-56
2022/08/21 01:49:41;;;;;;;;;;;;;;;17.07;45.99;100071.09;5076240;28;1233;-55
2022/08/21 01:52:06;;;;;;;;;;;;;;;17.14;45.87;100065.22;5075883;28;1064;-56
2022/08/21 01:54:32;;;;;;;;;;;;;;;17.08;45.83;100059.81;5075651;28;1159;-56
2022/08/21 01:56:57;;;;;;;;;;;;;;;17.02;46.07;100063.72;5058046;28;1009;-54
2022/08/21 01:59:23;;;;;;;;;;;;;;;17.05;46.17;100057.63;5070439;28;965;-54
2022/08/21 02:01:49;;;;;;;;;;;;;;;17.09;46.03;100057.88;5076153;28;933;-54
2022/08/21 02:04:14;;;;;;;;;;;;;;;17.00;46.11;100060.47;5075639;28;1988;-57
2022/08/21 02:06:40;;;;;;;;;;;;;;;17.04;46.40;100061.50;5076092;28;953;-57
2022/08/21 02:09:05;;;;;;;;;;;;;;;17.10;45.96;100059.53;5071081;28;993;-56
2022/08/21 02:11:31;;;;;;;;;;;;;;;17.06;46.06;100062.03;5073585;28;969;-56
2022/08/21 02:13:57;;;;;;;;;;;;;;;17.04;46.00;100061.50;5071334;28;1001;-56
2022/08/21 02:16:22;;;;;;;;;;;;;;;17.01;45.91;100062.09;5058277;28;1041;-55
2022/08/21 02:18:47;;;;;;;;;;;;;;;17.05;45.91;100062.31;5057037;28;1036;-56
2022/08/21 02:21:13;;;;;;;;;;;;;;;17.05;45.91;100063.13;5064658;28;1005;-56
2022/08/21 02:23:38;;;;;;;;;;;;;;;17.04;45.90;100068.91;5073443;28;1163;-56
2022/08/21 02:26:05;;;;;;;;;;;;;;;17.05;45.86;100068.63;5075112;28;1964;-56
2022/08/21 02:28:30;;;;;;;;;;;;;;;17.04;46.04;100067.00;5074080;28;1222;-54
2022/08/21 02:30:56;;;;;;;;;;;;;;;16.99;46.07;100075.31;5055969;28;1411;-54
2022/08/21 02:33:21;;;;;;;;;;;;;;;16.93;46.33;100069.06;5061835;28;1057;-55
2022/08/21 02:35:47;;;;;;;;;;;;;;;17.01;46.16;100067.59;5075135;28;1188;-55
2022/08/21 02:38:17;;;;;;;;;;;;;;;17.01;46.22;100070.34;5075262;28;973;-54
2022/08/21 02:40:43;;;;;;;;;;;;;;;17.03;46.34;100073.59;5071205;28;1324;-55
2022/08/21 02:43:08;;;;;;;;;;;;;;;17.03;46.18;100070.06;5065518;28;1002;-55
2022/08/21 02:45:34;;;;;;;;;;;;;;;17.03;46.09;100079.09;5060692;28;1982;-53
2022/08/21 02:48:01;;;;;;;;;;;;;;;17.07;46.22;100076.59;5062288;28;1068;-53
2022/08/21 02:50:27;;;;;;;;;;;;;;;17.00;46.42;100078.84;5074203;28;1056;-51
2022/08/21 02:52:53;;;;;;;;;;;;;;;17.12;46.00;100070.22;5074963;28;977;-56
2022/08/21 02:55:20;;;;;;;;;;;;;;;17.06;46.04;100070.25;5062713;28;1205;-56
2022/08/21 02:57:46;;;;;;;;;;;;;;;17.01;46.20;100077.75;5059575;28;1208;-56
2022/08/21 03:00:13;;;;;;;;;;;;;;;17.09;46.22;100077.91;5057234;28;1385;-55
2022/08/21 03:02:38;;;;;;;;;;;;;;;17.04;46.06;100071.66;5067775;28;2799;-55
2022/08/21 03:05:04;;;;;;;;;;;;;;;17.05;46.03;100070.56;5066432;28;1980;-56
2022/08/21 03:07:30;;;;;;;;;;;;;;;17.00;46.30;100076.94;5069534;28;2078;-55
2022/08/21 03:09:55;;;;;;;;;;;;;;;17.07;45.88;100071.09;5069612;28;1784;-54
2022/08/21 03:12:21;;;;;;;;;;;;;;;16.99;46.46;100086.28;5073474;28;2124;-53
2022/08/21 03:14:46;;;;;;;;;;;;;;;17.06;46.20;100077.69;5068970;28;1945;-51
2022/08/21 03:17:12;;;;;;;;;;;;;;;17.01;46.09;100077.75;5067836;28;1073;-50
2022/08/21 03:19:37;;;;;;;;;;;;;;;17.01;46.00;100073.09;5072179;28;1167;-53
2022/08/21 03:22:03;;;;;;;;;;;;;;;17.00;46.11;100076.94;5064354;28;997;-52
2022/08/21 03:24:29;;;;;;;;;;;;;;;17.03;46.25;100086.53;5058529;28;1897;-52
2022/08/21 03:26:54;;;;;;;;;;;;;;;17.00;46.22;100082.44;5067931;28;1064;-51
2022/08/21 03:29:20;;;;;;;;;;;;;;;17.08;45.78;100084.53;5078427;28;953;-52
2022/08/21 03:31:45;;;;;;;;;;;;;;;16.98;46.05;100079.16;5078377;28;1040;-50
2022/08/21 03:34:10;;;;;;;;;;;;;;;16.99;45.90;100080.78;5070499;28;962;-50
2022/08/21 03:36:36;;;;;;;;;;;;;;;17.06;45.82;100084.00;5076672;28;1116;-54
2022/08/21 03:39:01;;;;;;;;;;;;;;;16.99;45.83;100096.47;5078470;28;1072;-49
2022/08/21 03:41:27;;;;;;;;;;;;;;;16.96;46.22;100097.88;5076048;28;1017;-50
2022/08/21 03:43:53;;;;;;;;;;;;;;;16.98;46.05;100094.81;5076548;28;1967;-51
2022/08/21 03:46:18;;;;;;;;;;;;;;;16.93;46.26;100090.22;5064420;28;1831;-52
2022/08/21 03:48:44;;;;;;;;;;;;;;;17.05;47.17;100090.59;5058895;28;1199;-59
2022/08/21 03:51:09;;;;;;;;;;;;;;;17.16;47.82;100091.28;5070263;28;977;-56
2022/08/21 03:53:35;;;;;;;;;;;;;;;17.09;47.51;100093.59;5071917;28;1021;-56
2022/08/21 03:56:01;;;;;;;;;;;;;;;17.17;46.82;100108.63;5066934;28;1228;-56
2022/08/21 03:58:27;;;;;;;;;;;;;;;17.27;49.52;100097.50;5072495;28;981;-56
2022/08/21 04:00:53;;;;;;;;;;;;;;;17.45;50.23;100104.13;5065001;28;981;-56
2022/08/21 04:03:19;;;;;;;;;;;;;;;17.53;49.96;100097.13;5051955;28;1044;-57
2022/08/21 04:05:45;;;;;;;;;;;;;;;15.34;55.98;100104.06;5063119;28;1913;-55
2022/08/21 04:08:11;;;;;;;;;;;;;;;16.24;53.32;100101.28;5062034;28;1352;-55
2022/08/21 04:10:37;;;;;;;;;;;;;;;16.89;51.33;100100.16;5064533;28;1128;-56
2022/08/21 04:13:02;;;;;;;;;;;;;;;17.08;50.67;100101.03;5069354;28;957;-58
2022/08/21 04:15:28;;;;;;;;;;;;;;;17.21;50.69;100098.69;5068246;28;2305;-55
2022/08/21 04:17:54;;;;;;;;;;;;;;;17.26;49.63;100099.44;5064885;28;898;-57
2022/08/21 04:20:21;;;;;;;;;;;;;;;17.26;48.85;100091.19;5063712;28;1497;-57
2022/08/21 04:22:46;;;;;;;;;;;;;;;17.30;48.26;100096.88;5074287;28;954;-60
2022/08/21 04:25:12;;;;;;;;;;;;;;;17.15;48.03;100095.16;5075266;28;1981;-57
2022/08/21 04:27:39;;;;;;;;;;;;;;;17.22;47.83;100092.03;5075612;28;1096;-58
2022/08/21 04:30:04;;;;;;;;;;;;;;;17.13;47.48;100088.34;5076574;28;918;-57
2022/08/21 04:32:30;;;;;;;;;;;;;;;17.14;47.46;100087.19;5074813;28;1186;-57
2022/08/21 04:35:03;;;;;;;;;;;;;;;17.18;47.44;100094.59;5064608;28;855;-57
2022/08/21 04:37:29;;;;;;;;;;;;;;;17.17;48.49;100084.69;5051804;28;1056;-57
2022/08/21 04:39:57;;;;;;;;;;;;;;;17.25;48.90;100094.19;5068159;28;1028;-55
2022/08/21 04:42:23;;;;;;;;;;;;;;;17.23;48.21;100082.69;5073304;28;969;-56
2022/08/21 04:44:49;;;;;;;;;;;;;;;14.31;55.51;100082.47;5071162;28;2302;-54
2022/08/21 04:47:15;;;;;;;;;;;;;;;16.05;49.87;100085.56;5066251;28;886;-56
2022/08/21 04:49:40;;;;;;;;;;;;;;;16.58;48.15;100086.72;5071569;28;1131;-55
2022/08/21 04:52:06;;;;;;;;;;;;;;;16.72;47.72;100084.91;5075272;28;966;-53
2022/08/21 04:54:31;;;;;;;;;;;;;;;16.78;47.62;100088.41;5074544;28;1277;-52
2022/08/21 04:57:03;;;;;;;;;;;;;;;16.80;47.14;100085.38;5077372;28;1040;-54
2022/08/21 04:59:32;;;;;;;;;;;;;;;16.77;47.33;100086.78;5051794;28;878;-54
2022/08/21 05:01:58;;;;;;;;;;;;;;;16.81;47.04;100089.78;5066900;28;961;-53
2022/08/21 05:04:24;;;;;;;;;;;;;;;16.84;46.86;100086.44;5071451;28;1974;-53
2022/08/21 05:06:50;;;;;;;;;;;;;;;16.81;46.91;100089.78;5067679;28;1175;-52
2022/08/21 05:09:16;;;;;;;;;;;;;;;16.90;46.94;100093.53;5072479;28;1029;-54
2022/08/21 05:11:42;;;;;;;;;;;;;;;16.94;48.15;100078.09;5045265;28;893;-55
2022/08/21 05:14:08;;;;;;;;;;;;;;;16.98;48.35;100068.16;5074381;28;1001;-55
2022/08/21 05:16:33;;;;;;;;;;;;;;;16.97;47.82;100072.03;5055232;28;2583;-55
2022/08/21 05:18:59;;;;;;;;;;;;;;;17.06;48.89;100078.50;5076258;28;996;-58
2022/08/21 05:21:24;;;;;;;;;;;;;;;17.04;49.76;100077.16;5069595;28;1147;-56
2022/08/21 05:23:50;;;;;;;;;;;;;;;17.20;49.81;100070.38;5067538;28;2323;-55
2022/08/21 05:26:15;;;;;;;;;;;;;;;17.34;49.08;100066.91;5071047;28;1048;-54
2022/08/21 05:28:40;;;;;;;;;;;;;;;17.35;49.70;100066.59;5064690;28;922;-57
2022/08/21 05:31:06;;;;;;;;;;;;;;;14.86;56.42;100065.41;5070920;28;980;-57
2022/08/21 05:33:31;;;;;;;;;;;;;;;16.13;52.18;100069.56;5071577;28;1056;-61
2022/08/21 05:35:57;;;;;;;;;;;;;;;16.81;49.97;100065.88;5061511;28;1072;-56
2022/08/21 05:38:23;;;;;;;;;;;;;;;16.98;49.51;100064.63;5048036;28;1239;-58
2022/08/21 05:40:49;;;;;;;;;;;;;;;17.02;49.15;100069.22;5064969;28;1120;-58
2022/08/21 05:43:14;;;;;;;;;;;;;;;17.09;49.16;100066.13;5075130;28;1040;-57
2022/08/21 05:45:39;;;;;;;;;;;;;;;18.05;48.83;100066.97;5063191;28;1979;-54
2022/08/21 05:48:12;;;;;;;;;;;;;;;17.89;49.79;100063.59;5064110;28;1222;-63
2022/08/21 05:50:37;;;;;;;;;;;;;;;17.57;51.07;100063.28;5074618;28;1025;-60
2022/08/21 05:53:03;;;;;;;;;;;;;;;17.46;51.65;100061.78;5062020;28;1083;-59
2022/08/21 05:55:29;;;;;;;;;;;;;;;17.42;52.24;100058.81;5050234;28;1095;-61
2022/08/21 05:57:54;;;;;;;;;;;;;;;17.34;52.77;100066.91;5049818;28;1064;-57
2022/08/21 06:00:22;;;;;;;;;;;;;;;17.32;52.88;100067.19;5062774;28;934;-56
2022/08/21 06:02:49;;;;;;;;;;;;;;;17.28;53.17;100060.66;5067219;28;1001;-56
2022/08/21 06:05:15;;;;;;;;;;;;;;;17.24;53.56;100071.41;5068658;28;1897;-58
2022/08/21 06:07:41;;;;;;;;;;;;;;;17.21;54.08;100066.50;5075970;28;1008;-57
2022/08/21 06:10:07;;;;;;;;;;;;;;;17.18;54.07;100071.75;5059740;28;1099;-58
2022/08/21 06:12:32;;;;;;;;;;;;;;;17.15;54.48;100061.38;5068648;28;1017;-60
2022/08/21 06:14:57;;;;;;;;;;;;;;;17.15;54.76;100058.63;5062247;28;1873;-57
2022/08/21 06:17:23;;;;;;;;;;;;;;;17.14;54.82;100063.31;5067951;28;950;-58
2022/08/21 06:19:52;;;;;;;;;;;;;;;17.15;55.00;100061.38;5063742;28;950;-55
2022/08/21 06:22:17;;;;;;;;;;;;;;;17.13;54.96;100058.13;5063283;28;1013;-57
2022/08/21 06:24:43;;;;;;;;;;;;;;;17.06;55.47;100052.97;5063298;28;1965;-59
2022/08/21 06:27:08;;;;;;;;;;;;;;;17.11;55.79;100063.91;5066838;28;1143;-56
2022/08/21 06:29:34;;;;;;;;;;;;;;;17.10;55.80;100063.06;5064930;28;1044;-63
2022/08/21 06:31:59;;;;;;;;;;;;;;;17.03;55.89;100064.56;5066400;28;989;-65
2022/08/21 06:34:25;;;;;;;;;;;;;;;17.03;56.20;100062.63;5068942;28;973;-61
2022/08/21 06:36:50;;;;;;;;;;;;;;;17.02;56.20;100069.22;5068978;28;1143;-58
2022/08/21 06:39:16;;;;;;;;;;;;;;;17.01;56.10;100067.59;5066355;28;1064;-57
2022/08/21 06:41:41;;;;;;;;;;;;;;;17.02;56.04;100066.47;5063314;28;1151;-55
2022/08/21 06:44:07;;;;;;;;;;;;;;;16.96;56.22;100064.91;5067629;28;1949;-63
2022/08/21 06:46:33;;;;;;;;;;;;;;;16.96;56.18;100070.41;5066217;28;2375;-57
2022/08/21 06:48:59;;;;;;;;;;;;;;;16.96;56.33;100067.66;5068753;28;1044;-59
2022/08/21 06:51:27;;;;;;;;;;;;;;;16.97;56.37;100071.22;5061981;28;1158;-56
2022/08/21 06:53:52;;;;;;;;;;;;;;;16.96;56.29;100067.66;5065286;28;1052;-56
2022/08/21 06:56:18;;;;;;;;;;;;;;;16.90;56.64;100066.06;5066761;28;1244;-60
2022/08/21 06:58:43;;;;;;;;;;;;;;;16.95;56.62;100077.00;5072197;28;1017;-57
2022/08/21 07:01:09;;;;;;;;;;;;;;;16.91;56.85;100076.78;5065842;28;980;-56
2022/08/21 07:03:41;;;;;;;;;;;;;;;16.90;56.85;100071.56;5062421;28;1456;-56
2022/08/21 07:06:07;;;;;;;;;;;;;;;16.90;57.38;100072.41;5072621;28;1914;-56
2022/08/21 07:08:32;;;;;;;;;;;;;;;16.97;57.80;100066.56;5074989;28;1116;-58
2022/08/21 07:10:58;;;;;;;;;;;;;;;17.03;58.43;100065.38;5054235;28;1494;-59
2022/08/21 07:13:24;;;;;;;;;;;;;;;17.11;58.55;100072.16;5048328;28;1741;-59
2022/08/21 07:15:50;;;;;;;;;;;;;;;17.15;58.99;100072.38;5066097;28;1931;-59
2022/08/21 07:18:15;;;;;;;;;;;;;;;17.15;58.93;100072.38;5071530;28;985;-58
2022/08/21 07:20:41;;;;;;;;;;;;;;;17.10;59.31;100067.75;5070168;28;1052;-57
2022/08/21 07:23:10;;;;;;;;;;;;;;;17.14;59.54;100060.56;5071678;28;1067;-58
2022/08/21 07:25:35;;;;;;;;;;;;;;;17.13;60.13;100067.16;5061563;28;1983;-57
2022/08/21 07:28:01;;;;;;;;;;;;;;;17.18;60.04;100055.28;5067130;28;945;-57
2022/08/21 07:30:26;;;;;;;;;;;;;;;17.23;59.93;100057.97;5072833;28;1144;-57
2022/08/21 07:32:52;;;;;;;;;;;;;;;17.17;59.21;100059.16;5069190;28;1147;-58
2022/08/21 07:35:18;;;;;;;;;;;;;;;17.17;58.84;100059.16;5069757;28;1159;-54
2022/08/21 07:37:43;;;;;;;;;;;;;;;17.16;58.65;100054.78;5067127;28;1036;-54
2022/08/21 07:40:09;;;;;;;;;;;;;;;17.15;58.52;100061.38;5070883;28;1114;-57
2022/08/21 07:42:34;;;;;;;;;;;;;;;17.12;58.40;100057.28;5065149;28;1124;-56
2022/08/21 07:44:59;;;;;;;;;;;;;;;17.15;57.87;100042.94;5044182;28;2279;-55
2022/08/21 07:47:25;;;;;;;;;;;;;;;17.08;58.12;100045.25;5075612;28;1116;-62
2022/08/21 07:49:51;;;;;;;;;;;;;;;17.05;58.13;100045.84;5062068;28;1025;-62
2022/08/21 07:52:16;;;;;;;;;;;;;;;17.09;57.91;100042.19;5071002;28;1096;-58
2022/08/21 07:54:42;;;;;;;;;;;;;;;17.08;57.61;100035.09;5064235;28;1010;-57
2022/08/21 07:57:07;;;;;;;;;;;;;;;17.04;57.65;100039.53;5068823;28;1032;-57
2022/08/21 07:59:32;;;;;;;;;;;;;;;17.05;57.63;100035.66;5066280;28;1114;-60
2022/08/21 08:01:58;;;;;;;;;;;;;;;17.03;57.50;100035.16;5071453;28;1052;-59
2022/08/21 08:04:23;;;;;;;;;;;;;;;17.02;57.72;100041.75;5063444;28;1913;-61
2022/08/21 08:06:49;;;;;;;;;;;;;;;17.00;57.50;100038.50;5054146;28;1258;-61
2022/08/21 08:09:15;;;;;;;;;;;;;;;17.06;57.37;100037.31;5068219;28;1219;-59
2022/08/21 08:11:41;;;;;;;;;;;;;;;17.01;57.53;100034.66;5073338;28;813;-58
2022/08/21 08:14:06;;;;;;;;;;;;;;;17.01;57.53;100031.91;5065101;28;1213;-57
2022/08/21 08:16:31;;;;;;;;;;;;;;;17.04;57.38;100039.53;5063522;28;2340;-57
2022/08/21 08:18:57;;;;;;;;;;;;;;;16.98;57.57;100029.72;5065515;28;1392;-58
2022/08/21 08:21:23;;;;;;;;;;;;;;;16.99;57.71;100031.34;5062868;28;1032;-56
2022/08/21 08:23:48;;;;;;;;;;;;;;;16.98;57.76;100029.72;5069849;28;973;-55
2022/08/21 08:26:15;;;;;;;;;;;;;;;16.99;57.68;100028.63;5066326;28;1910;-55
2022/08/21 08:28:40;;;;;;;;;;;;;;;17.02;57.73;100024.47;5064018;28;1025;-54
2022/08/21 08:31:06;;;;;;;;;;;;;;;17.00;57.80;100032.16;5074102;28;985;-54
2022/08/21 08:33:31;;;;;;;;;;;;;;;16.96;57.77;100031.94;5072137;28;1147;-56
2022/08/21 08:35:57;;;;;;;;;;;;;;;16.96;57.77;100028.38;5074112;28;981;-58
2022/08/21 08:38:23;;;;;;;;;;;;;;;17.00;57.71;100029.41;5071121;28;1092;-58
2022/08/21 08:41:01;;;;;;;;;;;;;;;17.01;57.59;100023.66;5076745;28;977;-59
2022/08/21 08:43:28;;;;;;;;;;;;;;;16.98;58.05;100029.72;5070218;28;973;-59
2022/08/21 08:45:54;;;;;;;;;;;;;;;17.01;57.83;100025.56;5071850;28;1989;-57
2022/08/21 08:48:30;;;;;;;;;;;;;;;16.99;57.76;100031.34;5065547;28;915;-57
2022/08/21 08:50:56;;;;;;;;;;;;;;;16.99;57.83;100025.88;5052470;28;1094;-58
2022/08/21 08:53:24;;;;;;;;;;;;;;;16.99;57.86;100025.06;5061676;28;1017;-57
2022/08/21 08:55:49;;;;;;;;;;;;;;;16.99;58.08;100027.81;5041695;28;1293;-58
2022/08/21 08:58:20;;;;;;;;;;;;;;;16.99;57.86;100020.38;5039989;28;1172;-57
2022/08/21 09:00:46;;;;;;;;;;;;;;;17.00;57.90;100021.19;5049226;28;878;-58
2022/08/21 09:03:12;;;;;;;;;;;;;;;16.97;57.70;100006.13;5040759;28;1124;-56
2022/08/21 09:05:40;;;;;;;;;;;;;;;16.95;58.13;100011.09;5056594;28;1969;-55
2022/08/21 09:08:24;;;;;;;;;;;;;;;16.98;57.69;100006.94;5050243;28;972;-57
2022/08/21 09:11:09;;;;;;;;;;;;;;;16.98;57.87;100013.25;5043609;28;1092;-62
2022/08/21 09:13:37;;;;;;;;;;;;;;;16.98;57.84;99999.50;5042034;28;1135;-58
2022/08/21 09:16:02;;;;;;;;;;;;;;;16.95;57.82;99989.13;5045752;28;1949;-61
2022/08/21 09:18:34;;;;;;;;;;;;;;;17.01;59.74;99993.44;5043202;28;1119;-60
2022/08/21 09:21:38;;;;;;;;;;;;;;;17.08;60.21;99995.81;5043544;28;1076;-61
2022/08/21 09:24:10;;;;;;;;;;;;;;;17.14;60.62;99989.13;4991571;28;1958;-59
2022/08/21 09:26:47;;;;;;;;;;;;;;;17.15;60.23;99981.72;4986636;28;1168;-59
2022/08/21 09:29:12;;;;;;;;;;;;;;;17.17;59.70;99983.06;5025861;28;1376;-60
2022/08/21 09:31:38;;;;;;;;;;;;;;;17.10;59.48;99983.41;5039286;28;1043;-58
2022/08/21 09:34:08;;;;;;;;;;;;;;;17.14;59.37;99974.56;5044927;28;1198;-61
2022/08/21 09:36:43;;;;;;;;;;;;;;;17.18;59.68;99973.69;5044950;28;981;-60
2022/08/21 09:39:09;;;;;;;;;;;;;;;17.10;59.29;99966.94;5047431;28;1115;-56
2022/08/21 09:41:37;;;;;;;;;;;;;;;17.10;59.21;99971.63;5055715;28;973;-55
2022/08/21 09:44:04;;;;;;;;;;;;;;;17.12;59.01;99965.81;5053246;28;1969;-55
2022/08/21 09:46:29;;;;;;;;;;;;;;;17.06;58.79;99968.63;5046047;28;2470;-55
2022/08/21 09:48:58;;;;;;;;;;;;;;;17.07;58.83;99958.47;5050521;28;1080;-55
2022/08/21 09:51:24;;;;;;;;;;;;;;;17.06;58.56;99963.16;5043006;28;1230;-57
2022/08/21 09:53:58;;;;;;;;;;;;;;;17.07;58.68;99959.28;5048626;28;951;-55
2022/08/21 09:59:15;;;;;;;;;;;;;;;17.07;58.82;99951.03;5052437;28;1097;-55
2022/08/21 10:01:44;;;;;;;;;;;;;;;17.13;58.33;99964.72;5068600;28;1191;-54
2022/08/21 10:04:10;;;;;;;;;;;;;;;17.07;58.54;99944.75;5045711;28;1965;-58
2022/08/21 10:06:35;;;;;;;;;;;;;;;17.11;58.39;99943.03;5063973;28;1116;-58
2022/08/21 10:09:08;;;;;;;;;;;;;;;17.06;58.30;99948.59;5067629;28;1017;-60
2022/08/21 10:11:34;;;;;;;;;;;;;;;17.08;58.24;99944.44;5051333;28;1443;-57
2022/08/21 10:14:35;;;;;;;;;;;;;;;17.07;58.28;99956.53;5063497;28;907;-58
2022/08/21 10:17:06;;;;;;;;;;;;;;;17.09;58.32;99951.56;4972003;28;1380;-59
2022/08/21 10:19:35;;;;;;;;;;;;;;;17.07;58.34;99950.25;5051558;28;1117;-56
2022/08/21 10:22:00;;;;;;;;;;;;;;;17.07;58.26;99950.25;5054827;28;1243;-61
2022/08/21 10:24:33;;;;;;;;;;;;;;;17.01;58.55;99946.75;5065798;28;1901;-55
2022/08/21 10:27:06;;;;;;;;;;;;;;;17.06;58.28;99943.91;5044577;28;974;-55
2022/08/21 10:29:40;;;;;;;;;;;;;;;17.05;58.20;99928.53;5049925;28;986;-54
2022/08/21 10:32:15;;;;;;;;;;;;;;;17.04;58.25;99934.34;5066458;28;1103;-58
2022/08/21 10:34:47;;;;;;;;;;;;;;;17.06;58.24;99937.63;5056087;28;982;-54
2022/08/21 10:37:18;;;;;;;;;;;;;;;17.02;58.24;99940.13;5062581;28;1068;-57
2022/08/21 10:40:07;;;;;;;;;;;;;;;17.04;58.16;99939.81;5072591;28;981;-58
2022/08/21 10:42:43;;;;;;;;;;;;;;;17.01;58.32;99941.25;5069453;28;1150;-57
2022/08/21 10:45:25;;;;;;;;;;;;;;;17.03;58.18;99933.53;5051589;28;2449;-56
2022/08/21 10:47:50;;;;;;;;;;;;;;;17.06;57.87;99943.09;5048385;28;1167;-56
2022/08/21 10:50:15;;;;;;;;;;;;;;;17.00;58.14;99936.88;5068154;28;1049;-56
2022/08/21 10:52:47;;;;;;;;;;;;;;;16.99;58.12;99948.16;5073082;28;1001;-57
2022/08/21 10:55:14;;;;;;;;;;;;;;;17.03;57.87;99944.50;5074096;28;1067;-58
2022/08/21 10:57:44;;;;;;;;;;;;;;;16.97;58.33;99942.97;5068688;28;1247;-57
2022/08/21 11:00:14;;;;;;;;;;;;;;;16.99;58.21;99939.91;5037380;28;1029;-55
2022/08/21 11:02:41;;;;;;;;;;;;;;;17.01;58.04;99935.78;5062094;28;1001;-56
2022/08/21 11:05:10;;;;;;;;;;;;;;;17.02;58.19;99922.84;5047017;28;1975;-56
2022/08/21 11:07:36;;;;;;;;;;;;;;;17.01;58.06;99926.69;5070559;28;1005;-57
2022/08/21 11:10:03;;;;;;;;;;;;;;;16.99;57.99;99932.50;5049640;28;1132;-57
2022/08/21 11:12:33;;;;;;;;;;;;;;;16.97;58.08;99923.75;5047098;28;1104;-55
2022/08/21 11:15:18;;;;;;;;;;;;;;;16.99;57.99;99927.00;5066006;28;2424;-53
2022/08/21 11:17:45;;;;;;;;;;;;;;;16.98;57.85;99930.84;5039585;28;1108;-58
2022/08/21 11:20:36;;;;;;;;;;;;;;;16.97;57.96;99931.16;5053065;28;1113;-57
2022/08/21 11:23:28;;;;;;;;;;;;;;;16.95;58.02;99917.72;5017108;28;1227;-55
2022/08/21 11:25:55;;;;;;;;;;;;;;;17.04;58.65;99928.84;5057382;28;1902;-56
2022/08/21 11:28:20;;;;;;;;;;;;;;;16.97;58.70;99929.25;5050254;28;962;-55
2022/08/21 11:30:46;;;;;;;;;;;;;;;16.94;58.31;99918.81;5067302;28;1068;-56
2022/08/21 11:33:16;;;;;;;;;;;;;;;16.98;58.47;99930.03;5070510;28;1021;-57
2022/08/21 11:35:42;;;;;;;;;;;;;;;16.95;58.26;99919.66;5048954;28;1182;-55
2022/08/21 11:38:26;;;;;;;;;;;;;;;16.98;58.30;99925.34;5058953;28;942;-57
2022/08/21 11:40:55;;;;;;;;;;;;;;;16.96;58.34;99922.09;5072076;28;1105;-53
2022/08/21 11:43:20;;;;;;;;;;;;;;;16.95;58.28;99909.47;5073957;28;933;-51
2022/08/21 11:45:50;;;;;;;;;;;;;;;16.95;58.28;99903.97;5069711;28;1906;-58
2022/08/21 11:48:16;;;;;;;;;;;;;;;16.98;58.15;99905.31;5063713;28;1021;-56
2022/08/21 11:50:41;;;;;;;;;;;;;;;16.99;57.90;99909.72;5065987;28;977;-55
2022/08/21 11:53:25;;;;;;;;;;;;;;;16.95;58.07;99909.47;5070100;28;1128;-56
2022/08/21 11:56:11;;;;;;;;;;;;;;;16.94;58.07;99896.84;5067032;28;1096;-55
2022/08/21 11:58:44;;;;;;;;;;;;;;;16.97;58.01;99896.28;5050977;28;1036;-57
2022/08/21 12:01:23;;;;;;;;;;;;;;;16.94;57.91;99905.09;5069630;28;1012;-56
2022/08/21 12:03:52;;;;;;;;;;;;;;;16.94;58.17;99902.34;5071662;28;1024;-57
2022/08/21 12:06:26;;;;;;;;;;;;;;;16.92;58.24;99902.66;5073567;28;1960;-55
2022/08/21 12:09:03;;;;;;;;;;;;;;;16.91;58.13;99898.28;5056718;28;962;-55
2022/08/21 12:11:28;;;;;;;;;;;;;;;16.95;57.97;99887.50;5074323;28;1025;-55
2022/08/21 12:13:55;;;;;;;;;;;;;;;16.92;57.97;99885.38;5060403;28;827;-54
2022/08/21 12:16:29;;;;;;;;;;;;;;;16.90;58.18;99871.09;5077359;28;2508;-51
2022/08/21 12:19:27;;;;;;;;;;;;;;;16.91;58.26;99864.50;5059158;28;1004;-55
2022/08/21 12:22:04;;;;;;;;;;;;;;;16.90;58.07;99874.69;5071531;28;997;-56
2022/08/21 12:24:29;;;;;;;;;;;;;;;16.96;57.91;99861.69;5071905;28;1968;-56
2022/08/21 12:26:55;;;;;;;;;;;;;;;16.91;57.84;99859.00;5064838;28;854;-55
2022/08/21 12:29:22;;;;;;;;;;;;;;;16.87;58.20;99868.91;5073008;28;997;-56
2022/08/21 12:32:06;;;;;;;;;;;;;;;16.90;57.86;99857.38;5063847;28;1056;-56
2022/08/21 12:34:33;;;;;;;;;;;;;;;16.89;58.26;99866.75;5075236;28;997;-54
2022/08/21 12:37:17;;;;;;;;;;;;;;;16.88;57.95;99876.88;5075237;28;1091;-53
2022/08/21 12:39:43;;;;;;;;;;;;;;;16.91;57.85;99873.56;5070831;28;1028;-58
2022/08/21 12:42:16;;;;;;;;;;;;;;;16.91;57.85;99867.25;5070701;28;922;-54
2022/08/21 12:44:49;;;;;;;;;;;;;;;16.91;57.86;99886.47;5042512;28;1988;-55
2022/08/21 12:47:16;;;;;;;;;;;;;;;16.90;57.90;99890.31;5072551;28;918;-56
2022/08/21 12:49:51;;;;;;;;;;;;;;;16.86;57.97;99881.03;5059858;28;1091;-56
2022/08/21 12:52:19;;;;;;;;;;;;;;;16.88;58.28;99881.53;5044906;28;1010;-57
2022/08/21 12:54:45;;;;;;;;;;;;;;;16.90;57.91;99885.66;5054605;28;1009;-55
2022/08/21 12:57:37;;;;;;;;;;;;;;;16.91;58.63;99880.97;5062915;28;1127;-58